Terminal Aerodrome Forecast
Issued by NWS

Home | Current Version | Previous Version | Text Only | Print | Product List | Glossary On
Versions: 1 2 3 4 5 6 7 8 9 10 11 12 13 14 15 16 17 18 19 20 21
000
FTUS44 KLZK 010124 RRB
TAFLIT
TAF
KLIT 010124Z 0101/0124 13004KT P6SM SCT040 BKN100
     FM011000 VRB03KT 5SM BR BKN025
      TEMPO 0110/0114 2SM BR OVC005
     FM011500 34005KT P6SM SCT025
     FM011800 VRB05KT P6SM SCT050=

USA.gov is the U.S. government's official web portal to all federal, state and local government web resources and services.